Time;durP1;ratioP1;P1;durP2;ratioP2;P2;SDS_P1;SDS_P2;PMS_P1;PMS_P2;Temp;Humidity;BMP_temperature;BMP_pressure;BME280_temperature;BME280_humidity;BME280_pressure;Samples;Min_cycle;Max_cycle;Signal;HPM_P1;HPM_P2
2022/02/16 00:01:11;;;;;;;2.50;0.57;;;12.40;99.90;;;;;;6181592;23;20350;-78
2022/02/16 00:03:37;;;;;;;3.50;0.60;;;12.40;99.90;;;;;;6180970;23;20438;-78
2022/02/16 00:06:03;;;;;;;2.85;0.63;;;12.40;99.90;;;;;;6181223;23;19997;-77
2022/02/16 00:08:29;;;;;;;4.25;0.82;;;12.40;99.90;;;;;;6181218;23;20013;-77
2022/02/16 00:10:54;;;;;;;2.28;0.60;;;12.50;99.90;;;;;;6181667;23;20347;-77
2022/02/16 00:13:20;;;;;;;1.85;0.50;;;12.50;99.90;;;;;;6183417;23;20100;-77
2022/02/16 00:15:46;;;;;;;3.10;0.50;;;12.50;99.90;;;;;;6183267;23;20407;-78
2022/02/16 00:18:14;;;;;;;3.50;0.70;;;12.50;99.90;;;;;;6183501;23;20011;-77
2022/02/16 00:20:40;;;;;;;2.53;0.80;;;12.50;99.90;;;;;;6183023;23;20738;-78
2022/02/16 00:23:06;;;;;;;1.70;0.50;;;12.50;99.90;;;;;;6182883;23;20028;-78
2022/02/16 00:25:32;;;;;;;2.28;0.60;;;12.50;99.90;;;;;;6183314;23;20088;-77
2022/02/16 00:27:58;;;;;;;3.75;0.70;;;12.50;99.90;;;;;;6183288;23;20005;-78
2022/02/16 00:30:24;;;;;;;3.28;0.60;;;12.50;99.90;;;;;;6183193;23;20012;-78
2022/02/16 00:32:49;;;;;;;1.38;0.60;;;12.50;99.90;;;;;;6183295;23;20422;-78
2022/02/16 00:35:15;;;;;;;1.27;0.55;;;12.50;99.90;;;;;;6183336;23;20682;-78
2022/02/16 00:37:41;;;;;;;3.40;0.70;;;12.50;99.90;;;;;;6183114;23;20008;-78
2022/02/16 00:40:08;;;;;;;4.03;0.60;;;12.50;99.90;;;;;;6182586;23;20001;-78
2022/02/16 00:42:34;;;;;;;3.15;0.60;;;12.50;99.90;;;;;;6182223;23;20087;-77
2022/02/16 00:45:00;;;;;;;3.17;0.55;;;12.50;99.90;;;;;;6182865;23;20078;-78
2022/02/16 00:47:25;;;;;;;5.00;0.65;;;12.50;99.90;;;;;;6183175;23;20009;-78
2022/02/16 00:49:51;;;;;;;2.75;0.60;;;12.50;99.90;;;;;;6182736;23;20019;-78
2022/02/16 00:52:18;;;;;;;3.90;0.70;;;12.50;99.90;;;;;;6183498;23;20438;-78
2022/02/16 00:54:44;;;;;;;3.05;0.60;;;12.50;99.90;;;;;;6183027;23;20115;-77
2022/02/16 00:57:09;;;;;;;1.55;0.40;;;12.50;99.90;;;;;;6183252;23;20464;-77
2022/02/16 00:59:35;;;;;;;1.50;0.52;;;12.50;99.90;;;;;;6182553;23;20012;-77
2022/02/16 01:02:01;;;;;;;3.15;0.50;;;12.50;99.90;;;;;;6183205;23;19997;-78
2022/02/16 01:04:27;;;;;;;3.95;0.52;;;12.50;99.90;;;;;;6182703;23;20024;-78
2022/02/16 01:06:53;;;;;;;1.55;0.38;;;12.50;99.90;;;;;;6182635;23;20031;-77
2022/02/16 01:09:19;;;;;;;2.83;0.70;;;12.50;99.90;;;;;;6182311;23;20017;-78
2022/02/16 01:11:45;;;;;;;2.60;0.55;;;12.50;99.90;;;;;;6182875;23;20001;-79
2022/02/16 01:14:11;;;;;;;1.88;0.50;;;12.50;99.90;;;;;;6182521;23;20064;-78
2022/02/16 01:16:37;;;;;;;3.88;0.80;;;12.50;99.90;;;;;;6182803;23;20426;-78
2022/02/16 01:19:04;;;;;;;3.40;0.70;;;12.50;99.90;;;;;;6154652;23;20460;-78
2022/02/16 01:21:30;;;;;;;3.35;0.70;;;12.50;99.90;;;;;;6182741;23;20453;-78
2022/02/16 01:23:55;;;;;;;4.75;1.00;;;12.50;99.90;;;;;;6181692;23;20057;-78
2022/02/16 01:26:23;;;;;;;2.15;0.60;;;12.60;99.90;;;;;;6182220;23;20009;-77
2022/02/16 01:28:50;;;;;;;3.22;0.73;;;12.60;99.90;;;;;;6182312;23;20095;-78
2022/02/16 01:31:15;;;;;;;3.58;0.80;;;12.50;99.90;;;;;;6182389;23;20016;-78
2022/02/16 01:33:41;;;;;;;5.28;0.93;;;12.50;99.90;;;;;;6182589;23;20001;-78
2022/02/16 01:36:07;;;;;;;5.25;0.82;;;12.60;99.90;;;;;;6182356;23;20005;-77
2022/02/16 01:38:35;;;;;;;5.05;1.10;;;12.60;99.90;;;;;;6182351;23;20032;-78
2022/02/16 01:41:02;;;;;;;3.85;0.90;;;12.60;99.90;;;;;;6182376;23;20353;-78
2022/02/16 01:43:27;;;;;;;6.05;1.10;;;12.60;99.90;;;;;;6182578;23;20076;-78
2022/02/16 01:45:53;;;;;;;8.13;1.23;;;12.70;99.90;;;;;;6182504;23;20367;-78
2022/02/16 01:48:19;;;;;;;8.18;1.30;;;12.70;99.90;;;;;;6182246;23;20676;-78
2022/02/16 01:50:45;;;;;;;7.65;1.23;;;12.70;99.90;;;;;;6182555;23;20009;-77
2022/02/16 01:53:11;;;;;;;8.27;1.10;;;12.70;99.90;;;;;;6182658;23;20009;-78
2022/02/16 01:55:37;;;;;;;8.93;1.40;;;12.70;99.90;;;;;;6182929;23;20005;-78
2022/02/16 01:58:03;;;;;;;10.77;1.48;;;12.70;99.90;;;;;;6181695;23;20009;-78
2022/02/16 02:00:29;;;;;;;12.20;1.83;;;12.80;99.90;;;;;;6182419;23;20084;-78
2022/02/16 02:02:55;;;;;;;8.23;1.50;;;12.80;99.90;;;;;;6155800;23;20021;-78
2022/02/16 02:05:21;;;;;;;11.88;1.50;;;12.80;99.90;;;;;;6182596;23;20473;-78
2022/02/16 02:07:46;;;;;;;12.93;1.65;;;12.80;99.90;;;;;;6182322;23;20419;-78
2022/02/16 02:10:12;;;;;;;11.48;1.45;;;12.80;99.90;;;;;;6182485;23;20020;-77
2022/02/16 02:12:52;;;;;;;15.60;2.10;;;12.80;99.90;;;;;;6182354;23;20024;-79
2022/02/16 02:15:24;;;;;;;13.30;2.00;;;12.90;99.90;;;;;;6182097;23;20005;-77
2022/02/16 02:17:50;;;;;;;8.02;1.60;;;12.90;99.90;;;;;;6182000;23;20009;-77
2022/02/16 02:20:24;;;;;;;12.45;1.50;;;12.90;99.90;;;;;;6182616;23;20022;-78
2022/02/16 02:22:52;;;;;;;10.90;1.70;;;12.90;99.90;;;;;;6212378;23;20082;-78
2022/02/16 02:25:18;;;;;;;15.02;1.83;;;12.90;99.90;;;;;;6212786;23;19996;-77
2022/02/16 02:27:45;;;;;;;16.25;2.70;;;13.00;99.90;;;;;;6212095;23;20715;-77
2022/02/16 02:30:12;;;;;;;13.95;1.95;;;13.00;99.90;;;;;;6211666;23;20024;-77
2022/02/16 02:32:47;;;;;;;14.70;1.80;;;13.00;99.90;;;;;;6211768;23;20001;-77
2022/02/16 02:35:14;;;;;;;16.17;2.30;;;13.00;99.90;;;;;;6212527;23;20008;-78
2022/02/16 02:37:41;;;;;;;10.60;1.50;;;13.00;99.90;;;;;;6212468;23;20092;-78
2022/02/16 02:40:08;;;;;;;11.43;1.65;;;13.00;99.90;;;;;;6212533;23;20000;-78
2022/02/16 02:42:39;;;;;;;11.68;1.67;;;13.10;99.90;;;;;;6212149;23;20027;-77
2022/02/16 02:45:07;;;;;;;8.80;1.35;;;13.10;99.90;;;;;;6212472;23;20475;-78
2022/02/16 02:47:33;;;;;;;9.35;1.25;;;13.10;99.90;;;;;;6212270;23;20009;-78
2022/02/16 02:49:58;;;;;;;8.32;1.38;;;13.10;99.90;;;;;;6211694;23;20043;-78
2022/02/16 02:52:24;;;;;;;10.55;1.25;;;13.10;99.90;;;;;;6212034;23;20001;-77
2022/02/16 02:54:50;;;;;;;7.50;1.23;;;13.10;99.90;;;;;;6211886;23;20031;-78
2022/02/16 02:57:16;;;;;;;8.73;1.95;;;13.10;99.90;;;;;;6212279;23;20338;-77
2022/02/16 02:59:42;;;;;;;7.72;1.20;;;13.20;99.90;;;;;;6211767;23;20004;-77
2022/02/16 03:02:08;;;;;;;9.05;1.10;;;13.20;99.90;;;;;;6211923;23;20007;-77
2022/02/16 03:04:34;;;;;;;7.55;0.95;;;13.20;99.90;;;;;;6211641;23;20445;-78
2022/02/16 03:07:00;;;;;;;5.15;1.00;;;13.20;99.90;;;;;;6211649;23;20005;-78
2022/02/16 03:09:26;;;;;;;8.20;1.23;;;13.20;99.90;;;;;;6211395;23;20015;-77
2022/02/16 03:11:52;;;;;;;8.60;0.90;;;13.20;99.90;;;;;;6211830;23;20076;-77
2022/02/16 03:14:17;;;;;;;6.70;1.20;;;13.20;99.90;;;;;;6211638;23;20009;-78
2022/02/16 03:16:43;;;;;;;4.68;0.80;;;13.30;99.90;;;;;;6212301;23;20794;-78
2022/02/16 03:19:09;;;;;;;4.72;0.70;;;13.20;99.90;;;;;;6208928;23;20015;-78
2022/02/16 03:21:35;;;;;;;3.78;0.90;;;13.20;99.90;;;;;;6181901;23;20012;-78
2022/02/16 03:24:00;;;;;;;5.05;0.70;;;13.30;99.90;;;;;;6181578;23;20075;-78
2022/02/16 03:26:26;;;;;;;3.78;0.75;;;13.30;99.90;;;;;;6181173;23;20341;-78
2022/02/16 03:28:52;;;;;;;5.18;0.80;;;13.30;99.90;;;;;;6181791;23;20009;-78
2022/02/16 03:31:17;;;;;;;6.70;1.00;;;13.20;99.90;;;;;;6181757;23;20076;-77
2022/02/16 03:33:45;;;;;;;4.72;0.70;;;13.30;99.90;;;;;;6154963;23;20005;-77
2022/02/16 03:36:12;;;;;;;4.97;0.73;;;13.30;99.90;;;;;;6181717;23;20001;-78
2022/02/16 03:38:38;;;;;;;3.35;0.80;;;13.20;99.90;;;;;;6181722;23;20008;-78
2022/02/16 03:41:04;;;;;;;3.63;0.70;;;13.20;99.90;;;;;;6181530;23;20001;-77
2022/02/16 03:43:30;;;;;;;5.18;1.00;;;13.20;99.90;;;;;;6181487;23;20028;-77
2022/02/16 03:45:56;;;;;;;6.15;0.80;;;13.30;99.90;;;;;;6180483;23;20008;-78
2022/02/16 03:48:21;;;;;;;8.45;1.17;;;13.20;99.90;;;;;;6181403;23;20083;-78
2022/02/16 03:50:47;;;;;;;4.63;0.82;;;13.30;99.90;;;;;;6181861;23;20020;-78
2022/02/16 03:53:13;;;;;;;7.00;1.00;;;13.30;99.90;;;;;;6181545;23;19997;-78
2022/02/16 03:55:39;;;;;;;7.93;0.95;;;13.30;99.90;;;;;;6181633;23;20040;-78
2022/02/16 03:58:05;;;;;;;5.13;0.90;;;13.30;99.90;;;;;;6181258;23;20092;-78
2022/02/16 04:00:31;;;;;;;5.78;1.02;;;13.20;99.90;;;;;;6181350;23;20005;-80
2022/02/16 04:02:56;;;;;;;6.85;0.88;;;13.30;99.90;;;;;;6154317;23;20055;-78
2022/02/16 04:05:23;;;;;;;5.70;0.93;;;13.30;99.90;;;;;;6181485;23;20052;-78
2022/02/16 04:07:49;;;;;;;8.27;1.00;;;13.20;99.90;;;;;;6181674;23;20348;-78
2022/02/16 04:10:14;;;;;;;4.70;0.80;;;13.20;99.90;;;;;;6181471;23;20439;-78
2022/02/16 04:12:40;;;;;;;4.95;1.00;;;13.20;99.90;;;;;;6154736;23;20016;-78
2022/02/16 04:15:06;;;;;;;6.57;0.93;;;13.20;99.90;;;;;;6181199;23;20008;-78
2022/02/16 04:17:32;;;;;;;11.18;1.13;;;13.20;99.90;;;;;;6181676;23;20709;-79
2022/02/16 04:19:58;;;;;;;8.32;1.48;;;13.20;99.90;;;;;;6180757;23;20091;-78
2022/02/16 04:22:23;;;;;;;7.50;1.20;;;13.20;99.90;;;;;;6181850;23;20009;-78
2022/02/16 04:24:49;;;;;;;8.38;1.65;;;13.20;99.90;;;;;;6181457;23;20013;-78
2022/02/16 04:27:15;;;;;;;10.25;1.40;;;13.20;99.90;;;;;;6181144;23;20037;-78
2022/02/16 04:29:40;;;;;;;6.82;1.20;;;13.20;99.90;;;;;;6181569;23;20353;-79
2022/02/16 04:32:07;;;;;;;8.82;1.30;;;13.20;99.90;;;;;;6181543;23;20001;-78
2022/02/16 04:34:33;;;;;;;9.35;1.45;;;13.20;99.90;;;;;;6181538;23;20373;-78
2022/02/16 04:36:59;;;;;;;8.73;1.40;;;13.20;99.90;;;;;;6181090;23;20001;-78
2022/02/16 04:39:25;;;;;;;11.00;1.67;;;13.20;99.90;;;;;;6181162;23;20067;-78
2022/02/16 04:41:50;;;;;;;10.40;1.90;;;13.20;99.90;;;;;;6181284;23;20005;-79
2022/02/16 04:44:16;;;;;;;7.82;1.38;;;13.20;99.90;;;;;;6181601;23;20139;-79
2022/02/16 04:46:43;;;;;;;10.43;2.17;;;13.20;99.90;;;;;;6181293;23;20371;-79
2022/02/16 04:49:09;;;;;;;9.35;1.17;;;13.20;99.90;;;;;;6181293;23;20036;-78
2022/02/16 04:51:35;;;;;;;8.15;1.40;;;13.20;99.90;;;;;;6181748;23;20005;-78
2022/02/16 04:54:01;;;;;;;10.63;1.40;;;13.20;99.90;;;;;;6180826;23;20000;-79
2022/02/16 04:56:26;;;;;;;10.82;1.50;;;13.20;99.90;;;;;;6181032;23;20080;-79
2022/02/16 04:58:52;;;;;;;11.65;1.55;;;13.20;99.90;;;;;;6182596;23;20068;-79
2022/02/16 05:01:20;;;;;;;8.02;1.30;;;13.20;99.90;;;;;;6183156;23;20083;-78
2022/02/16 05:03:47;;;;;;;8.07;1.48;;;13.10;99.90;;;;;;6182613;23;20001;-79
2022/02/16 05:06:13;;;;;;;10.32;1.50;;;13.10;99.90;;;;;;6182990;23;20012;-78
2022/02/16 05:08:38;;;;;;;9.93;1.50;;;13.10;99.90;;;;;;6182590;23;20001;-78
2022/02/16 05:11:04;;;;;;;10.32;1.60;;;13.10;99.90;;;;;;6182306;23;20036;-79
2022/02/16 05:13:30;;;;;;;8.38;1.60;;;13.20;99.90;;;;;;6182980;23;20009;-79
2022/02/16 05:15:56;;;;;;;8.68;1.50;;;13.10;99.90;;;;;;6182863;23;20342;-79
2022/02/16 05:18:21;;;;;;;6.38;1.30;;;13.10;99.90;;;;;;6183413;23;20016;-79
2022/02/16 05:20:47;;;;;;;11.38;2.35;;;13.10;99.90;;;;;;6183004;23;20020;-79
2022/02/16 05:23:13;;;;;;;9.32;1.35;;;13.20;99.90;;;;;;6182818;23;20001;-79
2022/02/16 05:25:39;;;;;;;10.38;1.52;;;13.20;99.90;;;;;;6156387;23;20012;-78
2022/02/16 05:28:04;;;;;;;11.00;1.63;;;13.20;99.90;;;;;;6183049;23;20503;-78
2022/02/16 05:30:30;;;;;;;8.60;1.27;;;13.10;99.90;;;;;;6182619;23;20377;-79
2022/02/16 05:32:56;;;;;;;9.07;1.20;;;13.10;99.90;;;;;;6182603;23;20337;-78
2022/02/16 05:35:22;;;;;;;8.57;1.38;;;13.10;99.90;;;;;;6182888;23;20001;-79
2022/02/16 05:37:47;;;;;;;10.02;1.40;;;13.10;99.90;;;;;;6182835;23;19998;-78
2022/02/16 05:40:13;;;;;;;6.72;0.85;;;13.00;99.90;;;;;;6182976;23;20032;-79
2022/02/16 05:42:39;;;;;;;10.57;1.50;;;13.00;99.90;;;;;;6182688;23;20000;-78
2022/02/16 05:45:05;;;;;;;14.18;1.48;;;13.00;99.90;;;;;;6182639;23;20338;-79
2022/02/16 05:47:31;;;;;;;8.02;1.20;;;13.00;99.90;;;;;;6183135;23;20012;-77
2022/02/16 05:49:56;;;;;;;9.82;1.23;;;13.00;99.90;;;;;;6182716;23;20013;-78
2022/02/16 05:52:22;;;;;;;5.10;1.10;;;12.90;99.90;;;;;;6182007;23;20001;-78
2022/02/16 05:54:48;;;;;;;13.38;1.50;;;13.00;99.90;;;;;;6182223;23;20379;-78
2022/02/16 05:57:14;;;;;;;6.28;1.15;;;13.00;99.90;;;;;;6182181;23;20011;-78
2022/02/16 05:59:39;;;;;;;9.95;1.42;;;13.00;99.90;;;;;;6182733;23;20036;-80
2022/02/16 16:57:05;;;;;;;9.40;1.42;;;15.40;99.90;;;;;;5350448;22;21656;-72
2022/02/16 16:59:31;;;;;;;9.70;1.58;;;15.40;99.90;;;;;;6212803;23;20457;-77
2022/02/16 17:01:56;;;;;;;8.73;1.35;;;15.30;99.90;;;;;;6213710;23;20013;-76
2022/02/16 17:04:23;;;;;;;10.38;1.60;;;15.30;99.90;;;;;;6212802;23;20023;-77
2022/02/16 17:06:49;;;;;;;8.43;1.48;;;15.20;99.90;;;;;;6213686;23;20039;-73
2022/02/16 17:09:15;;;;;;;7.90;1.60;;;15.20;99.90;;;;;;6213436;23;20430;-73
2022/02/16 17:11:41;;;;;;;5.88;1.25;;;15.20;99.90;;;;;;6213215;23;20403;-74
2022/02/16 17:14:06;;;;;;;11.65;3.25;;;15.20;99.90;;;;;;6213674;23;20458;-75
2022/02/16 17:16:51;;;;;;;8.38;1.52;;;15.20;99.90;;;;;;5643545;22;22307;-78
2022/02/16 17:19:17;;;;;;;8.55;1.38;;;15.10;99.90;;;;;;6212401;23;20016;-80
2022/02/16 17:21:43;;;;;;;9.48;2.08;;;15.10;99.90;;;;;;6212774;23;20024;-80
2022/02/16 17:24:09;;;;;;;9.68;1.50;;;15.10;99.90;;;;;;6213426;23;20352;-81
2022/02/16 17:26:36;;;;;;;9.18;1.88;;;15.10;99.90;;;;;;6212134;23;20024;-81
2022/02/16 17:29:03;;;;;;;6.68;1.30;;;15.10;99.90;;;;;;6212721;23;20499;-81
2022/02/16 17:31:30;;;;;;;6.45;1.35;;;15.00;99.90;;;;;;6185573;23;20040;-81
2022/02/16 17:34:03;;;;;;;9.98;2.08;;;15.00;99.90;;;;;;6186560;23;20009;-81
2022/02/16 17:36:30;;;;;;;9.02;1.70;;;15.00;99.90;;;;;;6213130;23;20123;-81
2022/02/16 17:38:58;;;;;;;6.07;1.30;;;15.00;99.90;;;;;;6212182;23;20011;-81
2022/02/16 17:41:25;;;;;;;7.15;1.52;;;15.00;99.90;;;;;;6213081;23;19997;-81
2022/02/16 17:44:41;;;;;;;8.57;2.05;;;14.90;99.90;;;;;;6186152;23;20015;-78
2022/02/16 17:46:39;;;;;;;9.50;1.50;;;14.90;99.90;;;;;;6212341;23;20084;-78
2022/02/16 17:49:05;;;;;;;8.98;1.60;;;14.90;99.90;;;;;;6185884;23;20008;-78
2022/02/16 17:51:31;;;;;;;9.35;1.85;;;14.90;99.90;;;;;;6212589;23;20032;-79
2022/02/16 17:54:00;;;;;;;8.35;2.90;;;14.90;99.90;;;;;;6212690;23;20008;-79
2022/02/16 17:56:26;;;;;;;12.13;4.15;;;14.90;99.90;;;;;;6212739;23;20334;-78
2022/02/16 17:58:54;;;;;;;15.05;6.47;;;14.90;99.90;;;;;;6211943;23;19997;-78
2022/02/16 18:01:19;;;;;;;7.95;1.95;;;14.80;99.90;;;;;;6212448;23;20005;-79
2022/02/16 18:03:46;;;;;;;9.35;1.75;;;14.80;99.90;;;;;;6212590;23;20448;-79
2022/02/16 18:06:12;;;;;;;10.27;1.90;;;14.80;99.90;;;;;;6212465;23;20009;-78
2022/02/16 18:08:38;;;;;;;6.20;1.63;;;14.80;99.90;;;;;;6212898;23;20480;-79
2022/02/16 18:11:07;;;;;;;14.63;5.82;;;14.80;99.90;;;;;;6212356;23;20319;-78
2022/02/16 18:13:35;;;;;;;8.75;1.77;;;14.80;99.90;;;;;;6212553;23;20059;-79
2022/02/16 18:16:02;;;;;;;10.32;3.75;;;14.80;99.90;;;;;;6160832;23;20016;-78
2022/02/16 18:18:31;;;;;;;22.50;11.23;;;14.80;99.90;;;;;;6211825;23;20016;-78
2022/02/16 18:20:58;;;;;;;14.40;5.53;;;14.80;99.90;;;;;;6186226;23;20008;-79
2022/02/16 18:23:24;;;;;;;10.07;3.97;;;14.70;99.90;;;;;;6213507;23;20001;-78
2022/02/16 18:25:50;;;;;;;5.55;1.17;;;14.70;99.90;;;;;;6211888;23;20004;-82
2022/02/16 18:28:16;;;;;;;8.52;1.70;;;14.70;99.90;;;;;;6212218;23;20031;-81
2022/02/16 18:30:42;;;;;;;13.10;4.13;;;14.70;99.90;;;;;;6212210;23;20400;-83
2022/02/16 18:33:08;;;;;;;9.30;1.58;;;14.70;99.90;;;;;;6212763;23;19997;-82
2022/02/16 18:35:34;;;;;;;5.63;1.27;;;14.70;99.90;;;;;;6212212;23;20036;-81
2022/02/16 18:38:01;;;;;;;8.05;2.60;;;14.60;99.90;;;;;;6212069;23;20429;-82
2022/02/16 18:40:27;;;;;;;6.30;2.42;;;14.70;99.90;;;;;;6213764;23;20000;-82
2022/02/16 18:42:52;;;;;;;6.43;1.23;;;14.70;99.90;;;;;;6213867;23;20000;-82
2022/02/16 18:45:18;;;;;;;4.13;0.98;;;14.60;99.90;;;;;;6186551;23;20341;-82
2022/02/16 18:47:45;;;;;;;9.57;3.20;;;14.60;99.90;;;;;;6212727;23;20000;-83
2022/02/16 18:50:11;;;;;;;9.00;1.88;;;14.60;99.90;;;;;;6213294;23;20078;-82
2022/02/16 18:52:38;;;;;;;13.48;5.15;;;14.60;99.90;;;;;;6212649;23;20447;-82
2022/02/16 18:55:05;;;;;;;6.13;1.10;;;14.60;99.90;;;;;;6212953;23;20440;-82
2022/02/16 18:57:31;;;;;;;4.85;1.10;;;14.60;99.90;;;;;;6212897;23;20138;-82
2022/02/16 18:59:57;;;;;;;6.93;1.10;;;14.50;99.90;;;;;;6186619;23;20314;-82
2022/02/16 19:02:23;;;;;;;4.30;1.20;;;14.50;99.90;;;;;;6213109;23;20027;-81
2022/02/16 19:04:49;;;;;;;6.57;1.00;;;14.50;99.90;;;;;;6212840;23;20031;-82
2022/02/16 19:07:15;;;;;;;6.15;1.20;;;14.50;99.90;;;;;;6186186;23;20050;-82
2022/02/16 19:09:41;;;;;;;7.00;1.48;;;14.50;99.90;;;;;;6185916;23;20059;-82
2022/02/16 19:12:13;;;;;;;3.67;1.10;;;14.50;99.90;;;;;;6186134;23;20009;-82
2022/02/16 19:14:42;;;;;;;7.47;1.17;;;14.40;99.90;;;;;;6187135;23;20013;-82
2022/02/16 19:17:08;;;;;;;5.70;1.20;;;14.40;99.90;;;;;;6211969;22;20437;-82
2022/02/16 19:19:35;;;;;;;7.40;1.10;;;14.40;99.90;;;;;;6212923;23;20020;-82
2022/02/16 19:22:06;;;;;;;6.72;1.67;;;14.40;99.90;;;;;;6186361;23;20377;-82
2022/02/16 19:24:32;;;;;;;8.00;1.50;;;14.40;99.90;;;;;;6212502;23;20032;-82
2022/02/16 19:26:58;;;;;;;6.63;1.48;;;14.40;99.90;;;;;;6212281;23;20005;-82
2022/02/16 19:29:25;;;;;;;5.65;1.15;;;14.40;99.90;;;;;;6211265;23;20008;-82
2022/02/16 19:31:52;;;;;;;9.10;2.17;;;14.40;99.90;;;;;;6212910;23;20009;-82
2022/02/16 19:34:18;;;;;;;6.15;1.30;;;14.40;99.90;;;;;;6211897;23;20000;-82
2022/02/16 19:36:44;;;;;;;6.57;1.52;;;14.40;99.90;;;;;;6212580;23;20054;-82
2022/02/16 19:39:10;;;;;;;6.45;1.50;;;14.40;99.90;;;;;;6212011;23;20001;-82
2022/02/16 19:41:35;;;;;;;6.18;1.38;;;14.40;99.90;;;;;;6211701;23;20012;-81
2022/02/16 19:44:03;;;;;;;7.70;1.83;;;14.40;99.90;;;;;;6211620;23;20001;-82
2022/02/16 19:46:28;;;;;;;6.60;1.40;;;14.40;99.90;;;;;;6185088;23;20445;-82
2022/02/16 19:48:54;;;;;;;6.97;1.40;;;14.40;99.90;;;;;;6211709;23;20001;-81
2022/02/16 19:51:22;;;;;;;7.53;1.40;;;14.40;99.90;;;;;;6212172;23;20016;-82
2022/02/16 19:53:48;;;;;;;5.22;1.25;;;14.40;99.90;;;;;;6212121;23;20101;-82
2022/02/16 19:56:14;;;;;;;7.15;1.40;;;14.40;99.90;;;;;;6212263;23;20051;-82
2022/02/16 19:58:40;;;;;;;5.63;1.10;;;14.30;99.90;;;;;;6212091;23;20012;-82
2022/02/16 20:01:07;;;;;;;4.82;1.40;;;14.40;99.90;;;;;;6211707;23;20012;-82
2022/02/16 20:03:33;;;;;;;4.50;1.10;;;14.40;99.90;;;;;;6185414;23;20008;-82
2022/02/16 20:05:58;;;;;;;7.53;1.20;;;14.40;99.90;;;;;;6212144;23;20005;-82
2022/02/16 20:08:24;;;;;;;7.03;1.30;;;14.40;99.90;;;;;;6211831;23;20017;-82
2022/02/16 20:10:50;;;;;;;4.57;1.30;;;14.40;99.90;;;;;;6211949;23;20019;-82
2022/02/16 20:13:16;;;;;;;5.43;1.40;;;14.40;99.90;;;;;;6211469;23;20004;-82
2022/02/16 20:15:41;;;;;;;5.32;1.20;;;14.40;99.90;;;;;;6212006;23;20031;-82
2022/02/16 20:18:11;;;;;;;5.45;1.20;;;14.30;99.90;;;;;;6211804;23;20012;-82
2022/02/16 20:20:38;;;;;;;9.23;1.20;;;14.30;99.90;;;;;;6212346;23;20001;-82
2022/02/16 20:23:07;;;;;;;4.65;1.00;;;14.30;99.90;;;;;;6211521;23;20005;-82
2022/02/16 20:25:34;;;;;;;5.88;1.52;;;14.30;99.90;;;;;;6211122;23;20005;-82
2022/02/16 20:28:00;;;;;;;7.00;1.20;;;14.30;99.90;;;;;;6211695;23;20086;-82
2022/02/16 20:30:26;;;;;;;6.43;1.88;;;14.30;99.90;;;;;;6213708;23;20024;-82
2022/02/16 20:32:52;;;;;;;6.75;2.30;;;14.30;99.90;;;;;;6187347;23;20004;-82
2022/02/16 20:35:18;;;;;;;5.47;1.30;;;14.30;99.90;;;;;;6213762;23;20028;-82
2022/02/16 20:37:44;;;;;;;5.07;1.50;;;14.30;99.90;;;;;;6214013;23;20004;-83
2022/02/16 20:40:10;;;;;;;9.80;4.03;;;14.30;99.90;;;;;;6213581;23;20011;-79
2022/02/16 20:42:37;;;;;;;5.95;1.20;;;14.30;99.90;;;;;;6213840;23;20012;-81
2022/02/16 20:45:04;;;;;;;4.75;1.30;;;14.30;99.90;;;;;;6213390;23;19997;-81
2022/02/16 20:47:30;;;;;;;8.95;2.28;;;14.30;99.90;;;;;;6186649;23;20012;-82
2022/02/16 20:49:59;;;;;;;6.10;1.42;;;14.30;99.90;;;;;;6213768;23;20004;-82
2022/02/16 20:52:25;;;;;;;6.60;1.40;;;14.30;99.90;;;;;;6213792;23;20437;-82
2022/02/16 20:54:52;;;;;;;5.10;1.13;;;14.30;99.90;;;;;;6213351;23;20075;-82
2022/02/16 20:57:19;;;;;;;7.70;1.30;;;14.30;99.90;;;;;;6213478;23;20016;-81
2022/02/16 20:59:45;;;;;;;8.52;1.58;;;14.30;99.90;;;;;;6213195;23;20001;-82
2022/02/16 21:02:11;;;;;;;6.45;1.30;;;14.30;99.90;;;;;;6213165;23;20027;-82
2022/02/16 21:04:38;;;;;;;4.30;0.98;;;14.30;99.90;;;;;;6213817;23;20003;-82
2022/02/16 21:07:04;;;;;;;7.30;1.77;;;14.30;99.90;;;;;;6213659;23;20014;-81
2022/02/16 21:09:30;;;;;;;6.38;1.83;;;14.30;99.90;;;;;;6213129;23;20012;-83
2022/02/16 21:11:56;;;;;;;3.85;1.10;;;14.30;99.90;;;;;;6213575;23;20597;-83
2022/02/16 21:14:23;;;;;;;4.38;1.20;;;14.30;99.90;;;;;;6213458;23;20007;-82
2022/02/16 21:16:49;;;;;;;6.60;1.42;;;14.30;99.90;;;;;;6213159;23;20004;-82
2022/02/16 21:19:15;;;;;;;6.35;1.40;;;14.30;99.90;;;;;;6213521;23;20016;-83
2022/02/16 21:21:41;;;;;;;8.55;1.73;;;14.30;99.90;;;;;;6212306;23;20039;-80
2022/02/16 21:24:07;;;;;;;8.05;2.00;;;14.30;99.90;;;;;;6212952;23;19997;-80
2022/02/16 21:26:33;;;;;;;6.57;1.70;;;14.30;99.90;;;;;;6213641;23;20000;-80
2022/02/16 21:28:59;;;;;;;5.60;1.40;;;14.30;99.90;;;;;;6213001;23;20001;-80
2022/02/16 21:31:25;;;;;;;6.10;1.40;;;14.30;99.90;;;;;;6213740;23;20384;-80
2022/02/16 21:33:51;;;;;;;13.15;4.63;;;14.30;99.90;;;;;;6213239;23;20028;-80
2022/02/16 21:36:16;;;;;;;5.43;1.42;;;14.30;99.90;;;;;;6213117;23;20008;-80
2022/02/16 21:38:42;;;;;;;6.95;1.38;;;14.30;99.90;;;;;;6212702;23;20001;-80
2022/02/16 21:41:08;;;;;;;6.95;1.30;;;14.30;99.90;;;;;;6212747;23;20032;-80
2022/02/16 21:43:34;;;;;;;5.30;1.48;;;14.30;99.90;;;;;;6213341;23;20008;-81
2022/02/16 21:46:00;;;;;;;6.63;1.30;;;14.30;99.90;;;;;;6213413;23;20015;-84
2022/02/16 21:48:26;;;;;;;8.25;1.35;;;14.30;99.90;;;;;;6213053;23;20005;-83
2022/02/16 21:50:54;;;;;;;7.55;1.40;;;14.30;99.90;;;;;;6212736;23;20067;-81
2022/02/16 21:53:20;;;;;;;6.45;1.35;;;14.30;99.90;;;;;;6213339;23;20015;-83
2022/02/16 21:55:46;;;;;;;6.80;1.30;;;14.30;99.90;;;;;;6212907;23;20071;-83
2022/02/16 21:58:12;;;;;;;8.18;1.83;;;14.30;99.90;;;;;;6185690;23;20001;-83
2022/02/16 22:00:38;;;;;;;8.65;1.30;;;14.30;99.90;;;;;;6213123;23;20011;-83
2022/02/16 22:03:04;;;;;;;7.70;1.13;;;14.30;99.90;;;;;;6212464;23;20134;-83
2022/02/16 22:05:30;;;;;;;7.55;1.23;;;14.30;99.90;;;;;;6213083;23;20445;-83
2022/02/16 22:07:56;;;;;;;6.95;1.33;;;14.30;99.90;;;;;;6212692;23;20143;-83
2022/02/16 22:10:21;;;;;;;9.63;1.65;;;14.30;99.90;;;;;;6213196;23;20081;-83
2022/02/16 22:12:47;;;;;;;7.32;1.40;;;14.30;99.90;;;;;;6212971;23;20334;-83
2022/02/16 22:15:25;;;;;;;6.43;1.30;;;14.30;99.90;;;;;;6212557;23;20001;-83
2022/02/16 22:17:59;;;;;;;6.53;1.50;;;14.30;99.90;;;;;;6212726;23;20088;-82
2022/02/16 22:20:29;;;;;;;5.43;1.10;;;14.30;99.90;;;;;;6212966;23;20004;-82
2022/02/16 22:22:56;;;;;;;6.75;1.40;;;14.30;99.90;;;;;;6212487;23;20012;-82
2022/02/16 22:25:26;;;;;;;7.72;1.42;;;14.20;99.90;;;;;;6213161;23;20012;-82
2022/02/16 22:27:52;;;;;;;6.63;1.17;;;14.30;99.90;;;;;;6212892;23;20000;-82
2022/02/16 22:30:19;;;;;;;6.15;1.33;;;14.30;99.90;;;;;;6212714;23;20017;-82
2022/02/16 22:32:46;;;;;;;7.65;1.40;;;14.30;99.90;;;;;;6186220;23;20177;-82
2022/02/16 22:35:13;;;;;;;5.90;1.35;;;14.30;99.90;;;;;;6212258;23;20012;-83
2022/02/16 22:37:41;;;;;;;6.10;1.40;;;14.20;99.90;;;;;;6212923;23;20011;-82
2022/02/16 22:40:09;;;;;;;7.10;1.60;;;14.20;99.90;;;;;;6213078;23;20012;-83
2022/02/16 22:42:36;;;;;;;6.05;1.10;;;14.30;99.90;;;;;;6213180;23;20009;-82
2022/02/16 22:45:02;;;;;;;5.90;1.00;;;14.30;99.90;;;;;;6186590;23;20008;-82
2022/02/16 22:47:28;;;;;;;5.68;1.10;;;14.30;99.90;;;;;;6212841;23;19997;-82
2022/02/16 22:49:55;;;;;;;6.53;1.27;;;14.20;99.90;;;;;;6212555;23;20091;-82
2022/02/16 22:52:22;;;;;;;6.65;1.30;;;14.20;99.90;;;;;;6185769;23;20004;-82
2022/02/16 22:54:47;;;;;;;7.28;1.52;;;14.20;99.90;;;;;;6212219;23;20005;-82
2022/02/16 22:57:13;;;;;;;7.60;1.10;;;14.20;99.90;;;;;;6212498;23;20004;-83
2022/02/16 22:59:39;;;;;;;6.85;1.20;;;14.20;99.90;;;;;;6212929;23;20007;-82
2022/02/16 23:03:07;;;;;;;4.82;1.10;;;14.20;99.90;;;;;;6212639;23;20016;-83
2022/02/16 23:04:50;;;;;;;7.60;1.38;;;14.20;99.90;;;;;;6212264;23;20091;-83
2022/02/16 23:15:29;;;;;;;8.55;1.30;;;14.20;99.90;;;;;;6212783;23;20022;-83
2022/02/16 23:17:54;;;;;;;7.43;1.35;;;14.10;99.90;;;;;;6212386;23;20025;-82
2022/02/16 23:20:20;;;;;;;6.32;1.10;;;14.10;99.90;;;;;;6212227;23;20008;-82
2022/02/16 23:22:46;;;;;;;4.55;1.10;;;14.10;99.90;;;;;;6212760;23;20000;-82
2022/02/16 23:25:12;;;;;;;4.97;1.10;;;14.10;99.90;;;;;;6212502;23;20458;-83
2022/02/16 23:27:37;;;;;;;2.97;0.90;;;14.00;99.90;;;;;;6212379;23;20473;-82
2022/02/16 23:30:03;;;;;;;5.40;1.27;;;14.00;99.90;;;;;;6185528;23;20083;-82
2022/02/16 23:32:29;;;;;;;3.33;1.00;;;14.00;99.90;;;;;;6212206;23;20004;-82
2022/02/16 23:34:55;;;;;;;4.68;1.20;;;14.00;99.90;;;;;;6211721;23;20008;-82
2022/02/16 23:37:21;;;;;;;3.83;0.85;;;14.00;99.90;;;;;;6212170;23;20433;-82
2022/02/16 23:39:46;;;;;;;4.75;1.00;;;14.00;99.90;;;;;;6211924;23;20004;-82
2022/02/16 23:42:12;;;;;;;5.78;1.08;;;14.00;99.90;;;;;;6212234;23;20029;-82
2022/02/16 23:44:38;;;;;;;5.35;1.00;;;14.00;99.90;;;;;;6212145;23;20005;-82